createdAt,value
2018-08-27T00:04:01.193Z,99944.00
2018-08-27T00:09:07.404Z,99946.00
2018-08-27T00:14:10.680Z,99947.00
2018-08-27T00:19:13.856Z,99942.00
2018-08-27T00:24:17.326Z,99936.00
2018-08-27T00:29:20.653Z,99927.00
2018-08-27T00:34:23.648Z,99935.00
2018-08-27T00:39:27.309Z,99934.00
2018-08-27T00:44:30.789Z,99925.00
2018-08-27T00:49:34.009Z,99921.00
2018-08-27T00:54:37.669Z,99920.00
2018-08-27T00:59:41.158Z,99908.00
2018-08-27T01:04:44.346Z,99904.00
2018-08-27T01:09:47.414Z,99898.00
2018-08-27T01:14:50.767Z,99899.00
2018-08-27T01:19:54.056Z,99903.00
2018-08-27T01:24:57.483Z,99897.00
2018-08-27T01:30:00.554Z,99890.00
2018-08-27T01:35:04.487Z,99888.00
2018-08-27T01:40:07.710Z,99892.00
2018-08-27T01:45:11.189Z,99896.00
2018-08-27T01:50:14.325Z,99884.00
2018-08-27T01:55:17.985Z,99884.00
2018-08-27T02:00:21.169Z,99887.00
2018-08-27T02:05:24.242Z,99890.00
2018-08-27T02:10:27.440Z,99895.00
2018-08-27T02:15:30.778Z,99891.00
2018-08-27T02:20:34.206Z,99897.00
2018-08-27T02:25:37.645Z,99894.00
2018-08-27T02:30:41.220Z,99904.00
2018-08-27T02:35:44.367Z,99899.00
2018-08-27T02:40:47.582Z,99882.00
2018-08-27T02:45:51.012Z,99874.00
2018-08-27T02:50:54.111Z,99863.00
2018-08-27T02:55:57.488Z,99866.00
2018-08-27T03:01:01.202Z,99862.00
2018-08-27T03:06:04.414Z,99874.00
2018-08-27T03:11:07.620Z,99873.00
2018-08-27T03:16:11.241Z,99865.00
2018-08-27T03:21:14.892Z,99862.00
2018-08-27T03:26:18.553Z,99863.00
2018-08-27T03:31:21.870Z,99859.00
2018-08-27T03:36:25.554Z,99843.00
2018-08-27T03:41:28.820Z,99846.00
2018-08-27T03:46:31.997Z,99848.00
2018-08-27T03:51:35.106Z,99856.00
2018-08-27T03:56:38.506Z,99855.00
2018-08-27T04:01:41.859Z,99855.00
2018-08-27T04:06:45.068Z,99848.00
2018-08-27T04:11:48.992Z,99839.00
2018-08-27T04:16:52.203Z,99847.00
2018-08-27T04:21:55.951Z,99838.00
2018-08-27T04:26:59.155Z,99828.00
2018-08-27T04:32:02.177Z,99832.00
2018-08-27T04:37:05.497Z,99834.00
2018-08-27T04:42:09.034Z,99843.00
2018-08-27T04:47:12.748Z,99869.00
2018-08-27T04:52:15.969Z,99872.00
2018-08-27T04:57:19.419Z,99855.00
2018-08-27T05:02:22.847Z,99859.00
2018-08-27T05:07:26.170Z,99857.00
2018-08-27T05:12:29.748Z,99865.00
2018-08-27T05:17:33.057Z,99880.00
2018-08-27T05:22:36.209Z,99864.00
2018-08-27T05:27:39.581Z,99892.00
2018-08-27T05:32:42.794Z,99896.00
2018-08-27T05:37:46.127Z,99896.00
2018-08-27T05:42:49.251Z,99903.00
2018-08-27T05:47:52.475Z,99901.00
2018-08-27T05:52:55.545Z,99905.00
2018-08-27T05:57:58.999Z,99913.00
2018-08-27T06:03:02.127Z,99907.00
2018-08-27T06:08:05.581Z,99906.00
2018-08-27T06:13:09.202Z,99914.00
2018-08-27T06:18:12.952Z,99900.00
2018-08-27T06:23:17.030Z,99912.00
2018-08-27T06:28:20.356Z,99913.00
2018-08-27T06:33:23.613Z,99924.00
2018-08-27T06:38:27.254Z,99922.00
2018-08-27T06:43:30.591Z,99911.00
2018-08-27T06:48:34.912Z,99919.00
2018-08-27T06:53:38.472Z,99931.00
2018-08-27T06:58:41.981Z,99927.00
2018-08-27T07:03:45.081Z,99918.00
2018-08-27T07:08:49.038Z,99924.00
2018-08-27T07:13:52.839Z,99929.00
2018-08-27T07:18:56.143Z,99920.00
2018-08-27T07:23:59.465Z,99934.00
2018-08-27T07:29:02.866Z,99945.00
2018-08-27T07:34:06.393Z,99944.00
2018-08-27T07:39:10.913Z,99941.00
2018-08-27T07:44:14.133Z,99959.00
2018-08-27T07:49:17.289Z,99963.00
2018-08-27T07:54:21.561Z,99958.00
2018-08-27T07:59:24.683Z,99969.00
2018-08-27T08:04:27.769Z,99972.00
2018-08-27T08:09:31.606Z,99977.00
2018-08-27T08:14:35.090Z,99973.00
2018-08-27T08:19:38.163Z,99979.00
2018-08-27T08:24:41.405Z,99991.00
2018-08-27T08:29:44.384Z,99998.00
2018-08-27T08:34:47.550Z,100002.00
2018-08-27T08:39:50.848Z,100016.00
2018-08-27T08:44:54.068Z,100018.00
2018-08-27T08:49:57.536Z,100015.00
2018-08-27T08:55:00.686Z,100015.00
2018-08-27T09:00:04.176Z,100019.00
2018-08-27T09:05:07.725Z,100027.00
2018-08-27T09:10:11.032Z,100036.00
2018-08-27T09:15:14.227Z,100042.00
2018-08-27T09:20:17.322Z,100039.00
2018-08-27T09:25:20.938Z,100030.00
2018-08-27T09:30:24.245Z,100025.00
2018-08-27T09:35:27.567Z,100031.00
2018-08-27T09:40:30.779Z,99999.00
2018-08-27T09:45:33.986Z,100020.00
2018-08-27T09:50:36.986Z,100019.00
2018-08-27T09:55:40.447Z,100023.00
2018-08-27T10:00:48.996Z,99998.00
2018-08-27T10:05:52.028Z,100003.00
2018-08-27T10:10:55.256Z,100003.00
2018-08-27T10:15:58.348Z,100012.00
2018-08-27T10:21:01.410Z,100029.00
2018-08-27T10:26:04.903Z,100046.00
2018-08-27T10:31:08.633Z,100054.00
2018-08-27T10:36:11.916Z,100047.00
2018-08-27T10:41:15.269Z,100050.00
2018-08-27T10:46:18.432Z,100054.00
2018-08-27T10:51:22.065Z,100050.00
2018-08-27T10:56:25.551Z,100050.00
2018-08-27T11:01:28.601Z,100050.00
2018-08-27T11:06:32.002Z,100048.00
2018-08-27T11:11:35.533Z,100061.00
2018-08-27T11:16:38.953Z,100053.00
2018-08-27T11:21:42.274Z,100052.00
2018-08-27T11:26:46.561Z,100059.00
2018-08-27T11:31:49.648Z,100057.00
2018-08-27T11:36:52.680Z,100059.00
2018-08-27T11:41:55.695Z,100061.00
2018-08-27T11:46:58.748Z,100065.00
2018-08-27T11:52:01.892Z,100077.00
2018-08-27T11:57:05.741Z,100067.00
2018-08-27T12:02:09.020Z,100076.00
2018-08-27T12:07:12.092Z,100082.00
2018-08-27T12:12:15.107Z,100083.00
2018-08-27T12:17:18.297Z,100080.00
2018-08-27T12:22:21.598Z,100086.00
2018-08-27T12:27:24.982Z,100077.00
2018-08-27T12:32:27.970Z,100070.00
2018-08-27T12:37:31.218Z,100064.00
2018-08-27T12:42:34.521Z,100057.00
2018-08-27T12:47:37.740Z,100063.00
2018-08-27T12:52:40.831Z,100063.00
2018-08-27T12:57:44.311Z,100082.00
2018-08-27T13:02:48.187Z,100083.00
2018-08-27T13:07:51.381Z,100084.00
2018-08-27T13:12:54.437Z,100069.00
2018-08-27T13:17:57.663Z,100084.00
2018-08-27T13:23:00.893Z,100083.00
2018-08-27T13:28:04.207Z,100088.00
2018-08-27T13:33:08.214Z,100106.00
2018-08-27T13:38:11.459Z,100110.00
2018-08-27T13:43:14.886Z,100097.00
2018-08-27T13:48:18.033Z,100095.00
2018-08-27T13:53:21.295Z,100099.00
2018-08-27T13:58:24.568Z,100096.00
2018-08-27T14:03:27.923Z,100107.00
2018-08-27T14:08:31.528Z,100108.00
2018-08-27T14:13:34.747Z,100109.00
2018-08-27T14:18:38.137Z,100099.00
2018-08-27T14:23:41.927Z,100108.00
2018-08-27T14:28:45.251Z,100117.00
2018-08-27T14:33:48.427Z,100114.00
2018-08-27T14:38:52.867Z,100120.00
2018-08-27T14:43:56.995Z,100133.00
2018-08-27T14:49:01.134Z,100127.00
2018-08-27T14:54:05.926Z,100130.00
2018-08-27T14:59:10.228Z,100133.00
2018-08-27T15:04:13.958Z,100132.00
2018-08-27T15:09:18.323Z,100134.00
2018-08-27T15:14:21.476Z,100134.00
2018-08-27T15:19:24.502Z,100142.00
2018-08-27T15:24:27.681Z,100140.00
2018-08-27T15:29:30.740Z,100128.00
2018-08-27T15:34:33.724Z,100124.00
2018-08-27T15:39:36.733Z,100137.00
2018-08-27T15:44:39.833Z,100142.00
2018-08-27T15:49:42.868Z,100138.00
2018-08-27T15:54:45.901Z,100140.00
2018-08-27T15:59:49.121Z,100133.00
2018-08-27T16:04:52.340Z,100137.00
2018-08-27T16:09:55.378Z,100130.00
2018-08-27T16:14:58.654Z,100141.00
2018-08-27T16:20:01.710Z,100128.00
2018-08-27T16:25:04.811Z,100143.00
2018-08-27T16:30:11.067Z,100148.00
2018-08-27T16:35:14.113Z,100147.00
2018-08-27T16:40:17.320Z,100142.00
2018-08-27T16:45:20.654Z,100137.00
2018-08-27T16:50:23.719Z,100142.00
2018-08-27T16:55:26.803Z,100142.00
2018-08-27T17:00:30.200Z,100133.00
2018-08-27T17:05:33.345Z,100135.00
2018-08-27T17:10:36.414Z,100141.00
2018-08-27T17:15:39.413Z,100149.00
2018-08-27T17:20:42.552Z,100141.00
2018-08-27T17:25:46.725Z,100146.00
2018-08-27T17:30:50.225Z,100147.00
2018-08-27T17:35:53.381Z,100151.00
2018-08-27T17:40:56.424Z,100157.00
2018-08-27T17:45:59.545Z,100175.00
2018-08-27T17:51:02.731Z,100174.00
2018-08-27T17:56:05.907Z,100178.00
2018-08-27T18:01:09.326Z,100184.00
2018-08-27T18:06:12.551Z,100186.00
2018-08-27T18:11:16.099Z,100198.00
2018-08-27T18:16:19.940Z,100210.00
2018-08-27T18:21:23.246Z,100222.00
2018-08-27T18:26:26.975Z,100215.00
2018-08-27T18:31:30.410Z,100218.00
2018-08-27T18:36:33.938Z,100230.00
2018-08-27T18:41:37.329Z,100226.00
2018-08-27T18:46:40.723Z,100239.00
2018-08-27T18:51:43.881Z,100239.00
2018-08-27T18:56:46.818Z,100244.00
2018-08-27T19:01:50.248Z,100247.00
2018-08-27T19:06:53.984Z,100254.00
2018-08-27T19:11:57.794Z,100267.00
2018-08-27T19:17:01.412Z,100261.00
2018-08-27T19:22:04.849Z,100276.00
2018-08-27T19:27:08.442Z,100270.00
2018-08-27T19:32:11.959Z,100272.00
2018-08-27T19:37:15.752Z,100272.00
2018-08-27T19:42:19.316Z,100273.00
2018-08-27T19:47:22.397Z,100283.00
2018-08-27T19:52:25.479Z,100278.00
2018-08-27T19:57:28.836Z,100283.00
2018-08-27T20:02:31.867Z,100285.00
2018-08-27T20:07:35.069Z,100286.00
2018-08-27T20:12:38.109Z,100292.00
2018-08-27T20:17:41.440Z,100309.00
2018-08-27T20:22:44.508Z,100301.00
2018-08-27T20:27:47.831Z,100290.00
2018-08-27T20:32:51.004Z,100307.00
2018-08-27T20:37:54.184Z,100300.00
2018-08-27T20:42:57.354Z,100315.00
2018-08-27T20:48:00.323Z,100306.00
2018-08-27T20:53:03.360Z,100313.00
2018-08-27T20:58:06.476Z,100326.00
2018-08-27T21:03:09.604Z,100334.00
2018-08-27T21:08:12.572Z,100344.00
2018-08-27T21:13:15.589Z,100350.00
2018-08-27T21:18:18.799Z,100348.00
2018-08-27T21:23:21.922Z,100352.00
2018-08-27T21:28:24.859Z,100364.00
2018-08-27T21:33:27.821Z,100364.00
2018-08-27T21:38:30.819Z,100366.00
2018-08-27T21:43:33.891Z,100370.00
2018-08-27T21:48:36.916Z,100378.00
2018-08-27T21:53:39.956Z,100383.00
2018-08-27T21:58:42.974Z,100388.00
2018-08-27T22:04:22.243Z,100398.00
2018-08-27T22:09:25.392Z,100407.00
2018-08-27T22:14:28.367Z,100403.00
2018-08-27T22:19:31.381Z,100413.00
2018-08-27T22:24:34.399Z,100409.00
2018-08-27T22:29:37.379Z,100415.00
2018-08-27T22:34:40.371Z,100417.00
2018-08-27T22:39:43.411Z,100423.00
2018-08-27T22:44:46.715Z,100427.00
2018-08-27T22:49:49.784Z,100439.00
2018-08-27T22:54:52.736Z,100450.00
2018-08-27T22:59:55.841Z,100454.00
2018-08-27T23:04:59.717Z,100448.00
2018-08-27T23:10:02.762Z,100447.00
2018-08-27T23:15:05.760Z,100453.00
2018-08-27T23:20:08.773Z,100454.00
2018-08-27T23:25:11.702Z,100447.00
2018-08-27T23:30:15.365Z,100448.00
2018-08-27T23:35:18.449Z,100454.00
2018-08-27T23:40:21.436Z,100447.00
2018-08-27T23:45:24.346Z,100460.00
2018-08-27T23:50:34.150Z,100455.00
2018-08-27T23:55:37.084Z,100463.00
